Hunter Army Air Field
KSVN : now visible

Airfield :











YOU CAN JOIN US ON...

 
LOGIN :

Register | Disclaimer

   EN    FR    IT 

 









Legend :    VFR   Marginal VFR   IFR   Intensive IFR   Very Intensive IFR
Visi :
Ceiling :
>= 8 km
>= 3000ft
5 to 8 km
1000 to 3000 ft
1500m to 5 km
500 to 1000 ft
800 to 1500m
200 to 500 ft
< 800m
< 200 ft
Symbols :   Thunderstorms  Fog  Heavy snow  Heavy precipitations  Wind > 20 kt






- Airport Elevation : 41 ft


KSVN - Hunter Army Air Field

CURRENT METAR :
  • 240956Z AUTO 00000KT 10SM CLR 16/15 A2999 RMK AO2 SLP159 T01630146 $

EXPIRED METARs :
  • 240856Z AUTO 00000KT 10SM CLR 16/15 A2999 RMK AO2 SLP159 T01630145 55004 $
  • 240756Z AUTO 00000KT 10SM CLR 16/14 A2998 RMK AO2 SLP155 T01640144 $

TAF TAF KSVN
Valid from the 24 at 04:00 until the 25 at 10:00 UTC


240400Z 2404/2510 VRB06KT 9999 SCT110 QNH2996INS
BECMG 2419/2420 15010G15KT 9999 BKN040 QNH2998INS
BECMG 2508/2509 17009KT 9000 -SHRA BKN025 QNH2998INS TX27/2419Z TN16/2411Z
KZJX FIR / North America



MET'MAP, your aeronautical weather chart ! - Copyright ORBIFLY December 2007 - Disclaimer

ORBIFLY MET'MAP TEAM :

Programming & Development : Alexandra Zaïnal
Concept & original design : Baudouin d'Aumeries
Assistance for programming : Marc-Olivier Méhu
Technical & hardware support : Manuel Goepfert

Contact : metmap@orbifly.com




SOURCES & CREDITS :

   NOAA       Earth
Advisory